ITA1024 UDYZ-OJAI
Flight info
| Callsign | ITA1024 |
|---|---|
| Flight time | 1h 47m |
| Altitude | 36000 |
| Route | BEYAZ UT333 LESRI UL573 KML L572 TAN A412 ZELAF/N0459F370 A412 LUDAN |
| Aircraft | A320/M-SDE3FGHIRWY/LB1 |
Departure
| Time | 2026-05-06 15:07 |
|---|---|
| Airport | Zvartnots International Airport (UDYZ) |
Arrival
| Time | 2026-05-06 16:55 |
|---|---|
| Airport | Queen Alia International Airport (OJAI) |
| Time | Latitude | Longitude | Altitude | Speed | Heading |
|---|---|---|---|---|---|
| 2026-05-06 14:43 | 40.15101 | 44.40146 | 2838 ft | 0 kts | 360° |
| 2026-05-06 14:45 | 40.15100 | 44.40146 | 2837 ft | 0 kts | 360° |
| 2026-05-06 14:56 | 40.15091 | 44.40146 | 2838 ft | 2 kts | 360° |
| 2026-05-06 14:56 | 40.15077 | 44.40146 | 2838 ft | 2 kts | 360° |
| 2026-05-06 14:56 | 40.15063 | 44.40146 | 2837 ft | 2 kts | 360° |
| 2026-05-06 14:57 | 40.15049 | 44.40146 | 2838 ft | 2 kts | 360° |
| 2026-05-06 14:57 | 40.15035 | 44.40146 | 2836 ft | 2 kts | 360° |
| 2026-05-06 14:57 | 40.15021 | 44.40146 | 2838 ft | 2 kts | 360° |
| 2026-05-06 14:57 | 40.15008 | 44.40146 | 2837 ft | 2 kts | 360° |
| 2026-05-06 14:58 | 40.14994 | 44.40146 | 2838 ft | 2 kts | 360° |
| 2026-05-06 14:58 | 40.14980 | 44.40146 | 2836 ft | 2 kts | 360° |
| 2026-05-06 14:58 | 40.14972 | 44.40146 | 2836 ft | 0 kts | 360° |
| 2026-05-06 14:59 | 40.14971 | 44.40146 | 2836 ft | 0 kts | 360° |
| 2026-05-06 15:00 | 40.14978 | 44.40150 | 2837 ft | 5 kts | 30° |
| 2026-05-06 15:00 | 40.14986 | 44.40199 | 2837 ft | 5 kts | 85° |
| 2026-05-06 15:00 | 40.14987 | 44.40237 | 2837 ft | 4 kts | 90° |
| 2026-05-06 15:00 | 40.14988 | 44.40332 | 2837 ft | 15 kts | 89° |
| 2026-05-06 15:01 | 40.14989 | 44.40465 | 2838 ft | 14 kts | 89° |
| 2026-05-06 15:01 | 40.14989 | 44.40579 | 2838 ft | 12 kts | 89° |
| 2026-05-06 15:01 | 40.14991 | 44.40677 | 2837 ft | 10 kts | 89° |
| 2026-05-06 15:01 | 40.14991 | 44.40760 | 2837 ft | 8 kts | 90° |
| 2026-05-06 15:02 | 40.14991 | 44.40827 | 2837 ft | 7 kts | 89° |
| 2026-05-06 15:02 | 40.14991 | 44.40882 | 2837 ft | 6 kts | 89° |
| 2026-05-06 15:02 | 40.14992 | 44.40949 | 2837 ft | 8 kts | 89° |
| 2026-05-06 15:02 | 40.14993 | 44.41090 | 2838 ft | 22 kts | 89° |
| 2026-05-06 15:03 | 40.14994 | 44.41270 | 2838 ft | 18 kts | 89° |
| 2026-05-06 15:03 | 40.14995 | 44.41422 | 2838 ft | 15 kts | 89° |
| 2026-05-06 15:03 | 40.14996 | 44.41552 | 2838 ft | 13 kts | 89° |
| 2026-05-06 15:03 | 40.14994 | 44.41662 | 2838 ft | 11 kts | 101° |
| 2026-05-06 15:04 | 40.14953 | 44.41731 | 2838 ft | 9 kts | 145° |
| 2026-05-06 15:04 | 40.14911 | 44.41766 | 2839 ft | 6 kts | 148° |
| 2026-05-06 15:04 | 40.14887 | 44.41785 | 2840 ft | 2 kts | 148° |
| 2026-05-06 15:04 | 40.14883 | 44.41789 | 2840 ft | 1 kts | 147° |
| 2026-05-06 15:05 | 40.14844 | 44.41820 | 2842 ft | 7 kts | 150° |
| 2026-05-06 15:05 | 40.14815 | 44.41833 | 2843 ft | 1 kts | 171° |
| 2026-05-06 15:05 | 40.14803 | 44.41834 | 2844 ft | 4 kts | 175° |
| 2026-05-06 15:05 | 40.14754 | 44.41817 | 2844 ft | 8 kts | 225° |
| 2026-05-06 15:06 | 40.14744 | 44.41768 | 2844 ft | 0 kts | 266° |
| 2026-05-06 15:06 | 40.14744 | 44.41767 | 2844 ft | 0 kts | 266° |
| 2026-05-06 15:06 | 40.14742 | 44.41482 | 2841 ft | 69 kts | 269° |
| 2026-05-06 15:07 | 40.14737 | 44.40576 | 2838 ft | 127 kts | 269° |
| 2026-05-06 15:07 | 40.14733 | 44.39709 | 2833 ft | 159 kts | 269° |
| 2026-05-06 15:07 | 40.14717 | 44.38153 | 3228 ft | 171 kts | 270° |
| 2026-05-06 15:07 | 40.14701 | 44.36595 | 3965 ft | 172 kts | 271° |
| 2026-05-06 15:08 | 40.14684 | 44.34978 | 4387 ft | 186 kts | 269° |
| 2026-05-06 15:08 | 40.14635 | 44.33184 | 4631 ft | 209 kts | 267° |
| 2026-05-06 15:08 | 40.14556 | 44.31169 | 4876 ft | 234 kts | 267° |
| 2026-05-06 15:08 | 40.14460 | 44.28933 | 5230 ft | 259 kts | 267° |
| 2026-05-06 15:09 | 40.14352 | 44.26520 | 5858 ft | 271 kts | 266° |
| 2026-05-06 15:09 | 40.14239 | 44.24043 | 6695 ft | 274 kts | 266° |
| 2026-05-06 15:09 | 40.14126 | 44.21544 | 7571 ft | 276 kts | 266° |
| 2026-05-06 15:09 | 40.14014 | 44.19039 | 8485 ft | 276 kts | 266° |
| 2026-05-06 15:10 | 40.13902 | 44.16529 | 9385 ft | 278 kts | 266° |
| 2026-05-06 15:10 | 40.13790 | 44.14032 | 10213 ft | 281 kts | 265° |
| 2026-05-06 15:10 | 40.13668 | 44.11343 | 10505 ft | 304 kts | 265° |
| 2026-05-06 15:10 | 40.13534 | 44.08480 | 10711 ft | 327 kts | 265° |
| 2026-05-06 15:11 | 40.13392 | 44.05451 | 10914 ft | 348 kts | 265° |
| 2026-05-06 15:11 | 40.13246 | 44.02253 | 11459 ft | 356 kts | 265° |
| 2026-05-06 15:11 | 40.13098 | 43.99002 | 12135 ft | 360 kts | 265° |
| 2026-05-06 15:11 | 40.12949 | 43.95711 | 12766 ft | 365 kts | 265° |
| 2026-05-06 15:12 | 40.12795 | 43.92377 | 13435 ft | 369 kts | 265° |
| 2026-05-06 15:12 | 40.12637 | 43.88991 | 14078 ft | 373 kts | 265° |
| 2026-05-06 15:12 | 40.12475 | 43.85595 | 14688 ft | 376 kts | 265° |
| 2026-05-06 15:12 | 40.12312 | 43.82176 | 15317 ft | 379 kts | 265° |
| 2026-05-06 15:13 | 40.12148 | 43.78732 | 15948 ft | 381 kts | 265° |
| 2026-05-06 15:13 | 40.11970 | 43.75258 | 16566 ft | 384 kts | 263° |
| 2026-05-06 15:13 | 40.11409 | 43.71851 | 17150 ft | 385 kts | 250° |
| 2026-05-06 15:13 | 40.10262 | 43.68687 | 17751 ft | 388 kts | 237° |
| 2026-05-06 15:14 | 40.08572 | 43.65936 | 18352 ft | 391 kts | 224° |
| 2026-05-06 15:14 | 40.06414 | 43.63769 | 18875 ft | 393 kts | 212° |
| 2026-05-06 15:14 | 40.03936 | 43.62231 | 19401 ft | 396 kts | 205° |
| 2026-05-06 15:14 | 40.01392 | 43.60817 | 19887 ft | 399 kts | 205° |
| 2026-05-06 15:15 | 39.98837 | 43.59392 | 20374 ft | 401 kts | 205° |
| 2026-05-06 15:15 | 39.96299 | 43.57975 | 20820 ft | 403 kts | 205° |
| 2026-05-06 15:15 | 39.93710 | 43.56536 | 21291 ft | 406 kts | 205° |
| 2026-05-06 15:15 | 39.91102 | 43.55086 | 21751 ft | 408 kts | 205° |
| 2026-05-06 15:16 | 39.88488 | 43.53631 | 22204 ft | 410 kts | 205° |
| 2026-05-06 15:16 | 39.85861 | 43.52172 | 22649 ft | 412 kts | 205° |
| 2026-05-06 15:16 | 39.83216 | 43.50711 | 23041 ft | 414 kts | 205° |
| 2026-05-06 15:16 | 39.80523 | 43.49225 | 23453 ft | 416 kts | 205° |
| 2026-05-06 15:17 | 39.77848 | 43.47751 | 23821 ft | 418 kts | 205° |
| 2026-05-06 15:17 | 39.75203 | 43.46298 | 24188 ft | 419 kts | 205° |
| 2026-05-06 15:17 | 39.72519 | 43.44819 | 24577 ft | 419 kts | 205° |
| 2026-05-06 15:17 | 39.69833 | 43.43338 | 24942 ft | 419 kts | 206° |
| 2026-05-06 15:18 | 39.67142 | 43.41856 | 25281 ft | 421 kts | 206° |
| 2026-05-06 15:18 | 39.64446 | 43.40371 | 25610 ft | 422 kts | 206° |
| 2026-05-06 15:18 | 39.61742 | 43.38882 | 25934 ft | 423 kts | 206° |
| 2026-05-06 15:18 | 39.59033 | 43.37390 | 26237 ft | 424 kts | 206° |
| 2026-05-06 15:19 | 39.56312 | 43.35894 | 26533 ft | 425 kts | 206° |
| 2026-05-06 15:19 | 39.53586 | 43.34401 | 26815 ft | 426 kts | 205° |
| 2026-05-06 15:19 | 39.50851 | 43.32907 | 27081 ft | 427 kts | 205° |
| 2026-05-06 15:19 | 39.48108 | 43.31413 | 27351 ft | 428 kts | 205° |
| 2026-05-06 15:20 | 39.45359 | 43.29916 | 27645 ft | 428 kts | 205° |
| 2026-05-06 15:20 | 39.42623 | 43.28423 | 28023 ft | 426 kts | 206° |
| 2026-05-06 15:20 | 39.39904 | 43.26938 | 28410 ft | 423 kts | 206° |
| 2026-05-06 15:20 | 39.37197 | 43.25455 | 28786 ft | 422 kts | 206° |
| 2026-05-06 15:21 | 39.34516 | 43.23938 | 29163 ft | 419 kts | 210° |
| 2026-05-06 15:21 | 39.32102 | 43.21872 | 29514 ft | 415 kts | 218° |
| 2026-05-06 15:21 | 39.29793 | 43.19647 | 29891 ft | 414 kts | 218° |
| 2026-05-06 15:21 | 39.27495 | 43.17420 | 30228 ft | 412 kts | 218° |
| 2026-05-06 15:22 | 39.25204 | 43.15193 | 30539 ft | 411 kts | 218° |
| 2026-05-06 15:22 | 39.22921 | 43.12977 | 30851 ft | 410 kts | 218° |
| 2026-05-06 15:22 | 39.20647 | 43.10770 | 31163 ft | 408 kts | 218° |
| 2026-05-06 15:22 | 39.18384 | 43.08573 | 31475 ft | 407 kts | 218° |
| 2026-05-06 15:23 | 39.16120 | 43.06377 | 31775 ft | 406 kts | 218° |
| 2026-05-06 15:23 | 39.13892 | 43.04223 | 32079 ft | 405 kts | 218° |
| 2026-05-06 15:23 | 39.11608 | 43.02022 | 32377 ft | 404 kts | 218° |
| 2026-05-06 15:23 | 39.09387 | 42.99885 | 32677 ft | 403 kts | 218° |
| 2026-05-06 15:24 | 39.07141 | 42.97724 | 32971 ft | 403 kts | 218° |
| 2026-05-06 15:24 | 39.04899 | 42.95568 | 33247 ft | 402 kts | 218° |
| 2026-05-06 15:24 | 39.02665 | 42.93420 | 33580 ft | 400 kts | 218° |
| 2026-05-06 15:24 | 39.00445 | 42.91286 | 33909 ft | 398 kts | 219° |
| 2026-05-06 15:25 | 38.98231 | 42.89159 | 34195 ft | 397 kts | 219° |
| 2026-05-06 15:25 | 38.96020 | 42.87031 | 34416 ft | 397 kts | 219° |
| 2026-05-06 15:25 | 38.93809 | 42.84906 | 34594 ft | 398 kts | 218° |
| 2026-05-06 15:25 | 38.91592 | 42.82779 | 34755 ft | 398 kts | 218° |
| 2026-05-06 15:26 | 38.89370 | 42.80649 | 34979 ft | 399 kts | 218° |
| 2026-05-06 15:26 | 38.87145 | 42.78521 | 35207 ft | 399 kts | 218° |
| 2026-05-06 15:26 | 38.84916 | 42.76392 | 35411 ft | 399 kts | 218° |
| 2026-05-06 15:26 | 38.82688 | 42.74267 | 35585 ft | 400 kts | 218° |
| 2026-05-06 15:27 | 38.80451 | 42.72136 | 35778 ft | 400 kts | 218° |
| 2026-05-06 15:27 | 38.78213 | 42.70010 | 35935 ft | 401 kts | 218° |
| 2026-05-06 15:27 | 38.75969 | 42.67876 | 36066 ft | 402 kts | 218° |
| 2026-05-06 15:28 | 38.71483 | 42.63600 | 36096 ft | 406 kts | 218° |
| 2026-05-06 15:28 | 38.66940 | 42.59278 | 36096 ft | 407 kts | 218° |
| 2026-05-06 15:29 | 38.62386 | 42.54960 | 36101 ft | 407 kts | 218° |
| 2026-05-06 15:29 | 38.57834 | 42.50659 | 36102 ft | 406 kts | 218° |
| 2026-05-06 15:30 | 38.53302 | 42.46374 | 36113 ft | 405 kts | 218° |
| 2026-05-06 15:30 | 38.48768 | 42.42087 | 36112 ft | 405 kts | 218° |
| 2026-05-06 15:31 | 38.44261 | 42.37839 | 36111 ft | 406 kts | 218° |
| 2026-05-06 15:31 | 38.39718 | 42.33560 | 36108 ft | 406 kts | 218° |
| 2026-05-06 15:32 | 38.32896 | 42.27145 | 36114 ft | 406 kts | 218° |
| 2026-05-06 15:32 | 38.28332 | 42.22875 | 36114 ft | 406 kts | 218° |
| 2026-05-06 15:33 | 38.23778 | 42.18618 | 36109 ft | 406 kts | 218° |
| 2026-05-06 15:33 | 38.19220 | 42.14355 | 36106 ft | 407 kts | 218° |
| 2026-05-06 15:34 | 38.14656 | 42.10096 | 36093 ft | 406 kts | 218° |
| 2026-05-06 15:34 | 38.10100 | 42.05845 | 36117 ft | 406 kts | 218° |
| 2026-05-06 15:35 | 38.05542 | 42.01609 | 36115 ft | 406 kts | 218° |
| 2026-05-06 15:35 | 38.00985 | 41.97384 | 36104 ft | 405 kts | 218° |
| 2026-05-06 15:36 | 37.96433 | 41.93171 | 36084 ft | 405 kts | 218° |
| 2026-05-06 15:36 | 37.91913 | 41.88980 | 36079 ft | 405 kts | 218° |
| 2026-05-06 15:37 | 37.87230 | 41.84986 | 36079 ft | 407 kts | 214° |
| 2026-05-06 15:37 | 37.82371 | 41.81308 | 36074 ft | 407 kts | 213° |
| 2026-05-06 15:38 | 37.77504 | 41.77646 | 36070 ft | 407 kts | 213° |
| 2026-05-06 15:38 | 37.72663 | 41.73901 | 36064 ft | 408 kts | 214° |
| 2026-05-06 15:39 | 37.67853 | 41.70104 | 36061 ft | 408 kts | 215° |
| 2026-05-06 15:39 | 37.63034 | 41.66299 | 36062 ft | 409 kts | 214° |
| 2026-05-06 15:40 | 37.58208 | 41.62514 | 36066 ft | 409 kts | 214° |
| 2026-05-06 15:40 | 37.53367 | 41.58734 | 36071 ft | 409 kts | 214° |
| 2026-05-06 15:41 | 37.48516 | 41.54963 | 36069 ft | 410 kts | 214° |
| 2026-05-06 15:41 | 37.43653 | 41.51190 | 36071 ft | 411 kts | 214° |
| 2026-05-06 15:42 | 37.38785 | 41.47410 | 36050 ft | 411 kts | 214° |
| 2026-05-06 15:42 | 37.33954 | 41.43659 | 36068 ft | 410 kts | 214° |
| 2026-05-06 15:43 | 37.29094 | 41.39890 | 36081 ft | 410 kts | 214° |
| 2026-05-06 15:43 | 37.24233 | 41.36134 | 36084 ft | 410 kts | 214° |
| 2026-05-06 15:44 | 37.19374 | 41.32381 | 36085 ft | 410 kts | 214° |
| 2026-05-06 15:44 | 37.14506 | 41.28626 | 36081 ft | 410 kts | 214° |
| 2026-05-06 15:45 | 37.09632 | 41.24886 | 36071 ft | 411 kts | 214° |
| 2026-05-06 15:45 | 37.04776 | 41.21117 | 36067 ft | 411 kts | 216° |
| 2026-05-06 15:46 | 36.99990 | 41.17218 | 36055 ft | 410 kts | 216° |
| 2026-05-06 15:46 | 36.95234 | 41.13296 | 36056 ft | 409 kts | 216° |
| 2026-05-06 15:47 | 36.90466 | 41.09400 | 36070 ft | 409 kts | 216° |
| 2026-05-06 15:47 | 36.85686 | 41.05532 | 36068 ft | 409 kts | 216° |
| 2026-05-06 15:48 | 36.80906 | 41.01665 | 36061 ft | 410 kts | 216° |
| 2026-05-06 15:48 | 36.76118 | 40.97805 | 36065 ft | 410 kts | 216° |
| 2026-05-06 15:49 | 36.71325 | 40.93951 | 36062 ft | 410 kts | 216° |
| 2026-05-06 15:49 | 36.66569 | 40.90114 | 36069 ft | 410 kts | 216° |
| 2026-05-06 15:50 | 36.62551 | 40.86877 | 36062 ft | 411 kts | 216° |
| 2026-05-06 15:50 | 36.56952 | 40.82392 | 36055 ft | 412 kts | 216° |
| 2026-05-06 15:51 | 36.52131 | 40.78535 | 36039 ft | 411 kts | 216° |
| 2026-05-06 15:51 | 36.48075 | 40.75434 | 36053 ft | 414 kts | 210° |
| 2026-05-06 15:52 | 36.42703 | 40.72739 | 36058 ft | 416 kts | 205° |
| 2026-05-06 15:52 | 36.37302 | 40.70140 | 36047 ft | 416 kts | 206° |
| 2026-05-06 15:53 | 36.31895 | 40.67542 | 36061 ft | 416 kts | 206° |
| 2026-05-06 15:53 | 36.26487 | 40.64950 | 36059 ft | 416 kts | 206° |
| 2026-05-06 15:54 | 36.21086 | 40.62363 | 36055 ft | 416 kts | 206° |
| 2026-05-06 15:54 | 36.15696 | 40.59782 | 36061 ft | 415 kts | 206° |
| 2026-05-06 15:55 | 36.10309 | 40.57204 | 36065 ft | 415 kts | 206° |
| 2026-05-06 15:55 | 36.04932 | 40.54637 | 36054 ft | 414 kts | 206° |
| 2026-05-06 15:56 | 35.99605 | 40.52092 | 36058 ft | 413 kts | 206° |
| 2026-05-06 15:56 | 35.94238 | 40.49537 | 36063 ft | 412 kts | 206° |
| 2026-05-06 15:57 | 35.88890 | 40.46998 | 36071 ft | 411 kts | 206° |
| 2026-05-06 15:57 | 35.83538 | 40.44461 | 36066 ft | 412 kts | 206° |
| 2026-05-06 15:58 | 35.78186 | 40.41919 | 36060 ft | 412 kts | 206° |
| 2026-05-06 15:58 | 35.72840 | 40.39397 | 36048 ft | 411 kts | 206° |
| 2026-05-06 15:59 | 35.67536 | 40.36895 | 36054 ft | 410 kts | 206° |
| 2026-05-06 15:59 | 35.62206 | 40.34382 | 36051 ft | 410 kts | 206° |
| 2026-05-06 16:00 | 35.56886 | 40.31877 | 36045 ft | 409 kts | 207° |
| 2026-05-06 16:00 | 35.51578 | 40.29366 | 36052 ft | 408 kts | 207° |
| 2026-05-06 16:01 | 35.46277 | 40.26864 | 36054 ft | 408 kts | 207° |
| 2026-05-06 16:01 | 35.40973 | 40.24376 | 36050 ft | 408 kts | 207° |
| 2026-05-06 16:02 | 35.35667 | 40.21901 | 36046 ft | 408 kts | 206° |
| 2026-05-06 16:02 | 35.30361 | 40.19418 | 36043 ft | 407 kts | 209° |
| 2026-05-06 16:03 | 35.25612 | 40.15862 | 36040 ft | 399 kts | 220° |
| 2026-05-06 16:03 | 35.21113 | 40.11941 | 36043 ft | 399 kts | 219° |
| 2026-05-06 16:04 | 35.16546 | 40.07982 | 36041 ft | 400 kts | 219° |
| 2026-05-06 16:04 | 35.12046 | 40.04079 | 36027 ft | 399 kts | 219° |
| 2026-05-06 16:05 | 35.07513 | 40.00141 | 36043 ft | 400 kts | 219° |
| 2026-05-06 16:05 | 35.02979 | 39.96209 | 36037 ft | 400 kts | 219° |
| 2026-05-06 16:06 | 34.98430 | 39.92288 | 36012 ft | 400 kts | 219° |
| 2026-05-06 16:06 | 34.93883 | 39.88366 | 36027 ft | 400 kts | 220° |
| 2026-05-06 16:07 | 34.89367 | 39.84471 | 36036 ft | 400 kts | 220° |
| 2026-05-06 16:07 | 34.84830 | 39.80555 | 36026 ft | 399 kts | 220° |
| 2026-05-06 16:08 | 34.80286 | 39.76641 | 36035 ft | 400 kts | 220° |
| 2026-05-06 16:08 | 34.75740 | 39.72743 | 36034 ft | 400 kts | 220° |
| 2026-05-06 16:09 | 34.71189 | 39.68853 | 36033 ft | 400 kts | 220° |
| 2026-05-06 16:09 | 34.66649 | 39.64969 | 36026 ft | 398 kts | 220° |
| 2026-05-06 16:10 | 34.62118 | 39.61098 | 36042 ft | 398 kts | 220° |
| 2026-05-06 16:10 | 34.57586 | 39.57222 | 36068 ft | 398 kts | 220° |
| 2026-05-06 16:11 | 34.53079 | 39.53375 | 36025 ft | 398 kts | 220° |
| 2026-05-06 16:11 | 34.48544 | 39.49515 | 36036 ft | 399 kts | 220° |
| 2026-05-06 16:12 | 34.44003 | 39.45653 | 36043 ft | 399 kts | 220° |
| 2026-05-06 16:12 | 34.39455 | 39.41790 | 36028 ft | 399 kts | 220° |
| 2026-05-06 16:13 | 34.34905 | 39.37927 | 36040 ft | 399 kts | 220° |
| 2026-05-06 16:13 | 34.30349 | 39.34067 | 36059 ft | 400 kts | 220° |
| 2026-05-06 16:14 | 34.25792 | 39.30214 | 36051 ft | 400 kts | 220° |
| 2026-05-06 16:14 | 34.21229 | 39.26367 | 36035 ft | 400 kts | 220° |
| 2026-05-06 16:15 | 34.16669 | 39.22526 | 36042 ft | 400 kts | 220° |
| 2026-05-06 16:15 | 34.12108 | 39.18685 | 36043 ft | 399 kts | 220° |
| 2026-05-06 16:16 | 34.07584 | 39.14879 | 36029 ft | 399 kts | 220° |
| 2026-05-06 16:16 | 34.03037 | 39.11052 | 36057 ft | 399 kts | 220° |
| 2026-05-06 16:17 | 33.98477 | 39.07225 | 36046 ft | 399 kts | 220° |
| 2026-05-06 16:17 | 33.93921 | 39.03408 | 36013 ft | 399 kts | 219° |
| 2026-05-06 16:18 | 33.89363 | 38.99587 | 36023 ft | 399 kts | 219° |
| 2026-05-06 16:18 | 33.84795 | 38.95769 | 36041 ft | 400 kts | 219° |
| 2026-05-06 16:19 | 33.80221 | 38.91956 | 36050 ft | 400 kts | 219° |
| 2026-05-06 16:19 | 33.75645 | 38.88144 | 36062 ft | 400 kts | 220° |
| 2026-05-06 16:20 | 33.71066 | 38.84331 | 36042 ft | 401 kts | 219° |
| 2026-05-06 16:20 | 33.66476 | 38.80510 | 36041 ft | 402 kts | 219° |
| 2026-05-06 16:21 | 33.61871 | 38.76687 | 36016 ft | 402 kts | 219° |
| 2026-05-06 16:21 | 33.57267 | 38.72875 | 36032 ft | 402 kts | 219° |
| 2026-05-06 16:22 | 33.52669 | 38.69073 | 36034 ft | 402 kts | 219° |
| 2026-05-06 16:22 | 33.48156 | 38.65203 | 36057 ft | 398 kts | 225° |
| 2026-05-06 16:23 | 33.44288 | 38.60504 | 36034 ft | 396 kts | 229° |
| 2026-05-06 16:23 | 33.40457 | 38.55759 | 36034 ft | 396 kts | 229° |
| 2026-05-06 16:24 | 33.36618 | 38.51026 | 36035 ft | 396 kts | 229° |
| 2026-05-06 16:24 | 33.32775 | 38.46305 | 36010 ft | 396 kts | 229° |
| 2026-05-06 16:25 | 33.28931 | 38.41580 | 36034 ft | 396 kts | 229° |
| 2026-05-06 16:25 | 33.25099 | 38.36857 | 36046 ft | 395 kts | 229° |
| 2026-05-06 16:26 | 33.21262 | 38.32147 | 36050 ft | 395 kts | 229° |
| 2026-05-06 16:26 | 33.17450 | 38.27469 | 36047 ft | 395 kts | 229° |
| 2026-05-06 16:27 | 33.13608 | 38.22777 | 36055 ft | 394 kts | 229° |
| 2026-05-06 16:27 | 33.09772 | 38.18101 | 36050 ft | 394 kts | 229° |
| 2026-05-06 16:28 | 33.05929 | 38.13418 | 36046 ft | 395 kts | 229° |
| 2026-05-06 16:28 | 33.02113 | 38.08764 | 36020 ft | 395 kts | 229° |
| 2026-05-06 16:29 | 32.98271 | 38.04085 | 36027 ft | 395 kts | 229° |
| 2026-05-06 16:29 | 32.94488 | 37.99347 | 36024 ft | 392 kts | 234° |
| 2026-05-06 16:30 | 32.91738 | 37.95057 | 36050 ft | 392 kts | 236° |
| 2026-05-06 16:30 | 32.87853 | 37.89023 | 35994 ft | 393 kts | 235° |
| 2026-05-06 16:31 | 32.84520 | 37.83858 | 35999 ft | 393 kts | 235° |
| 2026-05-06 16:31 | 32.81184 | 37.78693 | 36000 ft | 394 kts | 235° |
| 2026-05-06 16:32 | 32.77840 | 37.73522 | 36006 ft | 394 kts | 235° |
| 2026-05-06 16:32 | 32.74519 | 37.68382 | 36001 ft | 395 kts | 235° |
| 2026-05-06 16:33 | 32.71168 | 37.63204 | 36002 ft | 395 kts | 235° |
| 2026-05-06 16:34 | 32.66138 | 37.55438 | 36006 ft | 396 kts | 235° |
| 2026-05-06 16:34 | 32.62780 | 37.50258 | 36004 ft | 396 kts | 235° |
| 2026-05-06 16:34 | 32.61096 | 37.47666 | 35878 ft | 397 kts | 235° |
| 2026-05-06 16:35 | 32.59410 | 37.45072 | 35645 ft | 397 kts | 235° |
| 2026-05-06 16:35 | 32.57724 | 37.42476 | 35403 ft | 397 kts | 235° |
| 2026-05-06 16:35 | 32.56037 | 37.39881 | 35161 ft | 397 kts | 235° |
| 2026-05-06 16:35 | 32.54349 | 37.37288 | 34704 ft | 397 kts | 235° |
| 2026-05-06 16:36 | 32.52659 | 37.34690 | 33918 ft | 397 kts | 235° |
| 2026-05-06 16:36 | 32.50975 | 37.32098 | 33079 ft | 396 kts | 235° |
| 2026-05-06 16:36 | 32.49291 | 37.29512 | 32245 ft | 396 kts | 235° |
| 2026-05-06 16:36 | 32.47601 | 37.26923 | 31323 ft | 398 kts | 235° |
| 2026-05-06 16:37 | 32.45906 | 37.24334 | 30496 ft | 398 kts | 235° |
| 2026-05-06 16:37 | 32.44229 | 37.21769 | 29467 ft | 401 kts | 235° |
| 2026-05-06 16:37 | 32.42507 | 37.19135 | 28299 ft | 405 kts | 236° |
| 2026-05-06 16:37 | 32.40777 | 37.16490 | 27177 ft | 407 kts | 236° |
| 2026-05-06 16:38 | 32.39035 | 37.13830 | 26083 ft | 409 kts | 236° |
| 2026-05-06 16:38 | 32.37292 | 37.11170 | 25036 ft | 410 kts | 236° |
| 2026-05-06 16:38 | 32.35549 | 37.08508 | 24031 ft | 410 kts | 236° |
| 2026-05-06 16:38 | 32.34391 | 37.06740 | 23330 ft | 410 kts | 236° |
| 2026-05-06 16:39 | 32.32646 | 37.04077 | 22178 ft | 411 kts | 236° |
| 2026-05-06 16:39 | 32.30894 | 37.01404 | 21103 ft | 411 kts | 235° |
| 2026-05-06 16:39 | 32.29147 | 36.98740 | 20256 ft | 408 kts | 235° |
| 2026-05-06 16:39 | 32.27415 | 36.96108 | 19415 ft | 405 kts | 235° |
| 2026-05-06 16:40 | 32.25691 | 36.93487 | 18607 ft | 402 kts | 235° |
| 2026-05-06 16:40 | 32.23978 | 36.90882 | 17738 ft | 401 kts | 235° |
| 2026-05-06 16:40 | 32.22277 | 36.88301 | 16956 ft | 396 kts | 234° |
| 2026-05-06 16:40 | 32.20588 | 36.85740 | 16206 ft | 393 kts | 234° |
| 2026-05-06 16:41 | 32.18915 | 36.83203 | 15464 ft | 390 kts | 234° |
| 2026-05-06 16:41 | 32.17253 | 36.80682 | 14777 ft | 387 kts | 234° |
| 2026-05-06 16:41 | 32.15605 | 36.78184 | 14094 ft | 385 kts | 234° |
| 2026-05-06 16:41 | 32.13966 | 36.75703 | 13374 ft | 382 kts | 234° |
| 2026-05-06 16:42 | 32.12343 | 36.73247 | 12726 ft | 377 kts | 234° |
| 2026-05-06 16:42 | 32.10732 | 36.70817 | 12066 ft | 372 kts | 234° |
| 2026-05-06 16:42 | 32.09142 | 36.68417 | 11336 ft | 370 kts | 234° |
| 2026-05-06 16:42 | 32.07586 | 36.66073 | 11125 ft | 353 kts | 234° |
| 2026-05-06 16:43 | 32.06129 | 36.63884 | 11016 ft | 332 kts | 234° |
| 2026-05-06 16:43 | 32.04740 | 36.61871 | 10877 ft | 303 kts | 229° |
| 2026-05-06 16:43 | 32.03310 | 36.60182 | 10661 ft | 281 kts | 227° |
| 2026-05-06 16:43 | 32.01945 | 36.58585 | 10289 ft | 272 kts | 227° |
| 2026-05-06 16:44 | 32.00603 | 36.57007 | 10055 ft | 272 kts | 227° |
| 2026-05-06 16:44 | 31.99269 | 36.55437 | 9854 ft | 271 kts | 227° |
| 2026-05-06 16:44 | 31.97932 | 36.53863 | 9734 ft | 272 kts | 227° |
| 2026-05-06 16:44 | 31.96592 | 36.52286 | 9600 ft | 273 kts | 227° |
| 2026-05-06 16:45 | 31.95251 | 36.50710 | 9474 ft | 272 kts | 227° |
| 2026-05-06 16:45 | 31.93910 | 36.49136 | 9345 ft | 272 kts | 227° |
| 2026-05-06 16:45 | 31.92568 | 36.47562 | 9215 ft | 273 kts | 227° |
| 2026-05-06 16:45 | 31.91218 | 36.45982 | 9084 ft | 273 kts | 226° |
| 2026-05-06 16:46 | 31.89870 | 36.44403 | 8906 ft | 273 kts | 226° |
| 2026-05-06 16:46 | 31.88526 | 36.42837 | 8542 ft | 271 kts | 224° |
| 2026-05-06 16:46 | 31.87015 | 36.41490 | 7981 ft | 277 kts | 216° |
| 2026-05-06 16:46 | 31.85444 | 36.40240 | 7393 ft | 273 kts | 215° |
| 2026-05-06 16:47 | 31.83871 | 36.39004 | 6733 ft | 270 kts | 214° |
| 2026-05-06 16:47 | 31.82310 | 36.37778 | 6016 ft | 269 kts | 215° |
| 2026-05-06 16:47 | 31.80777 | 36.36572 | 5657 ft | 261 kts | 216° |
| 2026-05-06 16:47 | 31.79324 | 36.35429 | 5502 ft | 243 kts | 215° |
| 2026-05-06 16:48 | 31.78119 | 36.34150 | 5395 ft | 226 kts | 242° |
| 2026-05-06 16:48 | 31.77705 | 36.32442 | 5299 ft | 216 kts | 262° |
| 2026-05-06 16:48 | 31.77491 | 36.30755 | 5292 ft | 202 kts | 263° |
| 2026-05-06 16:48 | 31.77273 | 36.29133 | 5296 ft | 199 kts | 261° |
| 2026-05-06 16:49 | 31.77049 | 36.27533 | 5300 ft | 196 kts | 262° |
| 2026-05-06 16:49 | 31.76825 | 36.25951 | 5301 ft | 195 kts | 262° |
| 2026-05-06 16:49 | 31.76599 | 36.24363 | 5310 ft | 197 kts | 261° |
| 2026-05-06 16:49 | 31.76374 | 36.22781 | 5306 ft | 196 kts | 261° |
| 2026-05-06 16:50 | 31.76149 | 36.21195 | 5308 ft | 197 kts | 261° |
| 2026-05-06 16:50 | 31.75927 | 36.19636 | 5338 ft | 185 kts | 261° |
| 2026-05-06 16:50 | 31.75724 | 36.18214 | 5288 ft | 170 kts | 261° |
| 2026-05-06 16:50 | 31.75533 | 36.16879 | 5133 ft | 163 kts | 262° |
| 2026-05-06 16:51 | 31.75349 | 36.15586 | 4944 ft | 158 kts | 263° |
| 2026-05-06 16:51 | 31.75167 | 36.14314 | 4723 ft | 157 kts | 262° |
| 2026-05-06 16:51 | 31.74991 | 36.13082 | 4540 ft | 149 kts | 264° |
| 2026-05-06 16:51 | 31.74825 | 36.11923 | 4352 ft | 144 kts | 263° |
| 2026-05-06 16:52 | 31.74661 | 36.10782 | 4166 ft | 139 kts | 263° |
| 2026-05-06 16:52 | 31.74502 | 36.09667 | 3976 ft | 137 kts | 264° |
| 2026-05-06 16:52 | 31.74344 | 36.08565 | 3795 ft | 137 kts | 264° |
| 2026-05-06 16:52 | 31.74186 | 36.07462 | 3610 ft | 137 kts | 265° |
| 2026-05-06 16:53 | 31.74028 | 36.06362 | 3440 ft | 136 kts | 265° |
| 2026-05-06 16:53 | 31.73870 | 36.05265 | 3234 ft | 136 kts | 264° |
| 2026-05-06 16:53 | 31.73713 | 36.04170 | 3027 ft | 135 kts | 266° |
| 2026-05-06 16:53 | 31.73557 | 36.03084 | 2840 ft | 135 kts | 263° |
| 2026-05-06 16:54 | 31.73402 | 36.02004 | 2663 ft | 135 kts | 264° |
| 2026-05-06 16:54 | 31.73250 | 36.00924 | 2509 ft | 134 kts | 263° |
| 2026-05-06 16:54 | 31.73096 | 35.99854 | 2418 ft | 129 kts | 262° |
| 2026-05-06 16:54 | 31.72987 | 35.99099 | 2419 ft | 58 kts | 260° |
| 2026-05-06 16:55 | 31.72926 | 35.98679 | 2419 ft | 48 kts | 260° |
| 2026-05-06 16:55 | 31.72877 | 35.98329 | 2417 ft | 35 kts | 257° |
| 2026-05-06 16:55 | 31.72785 | 35.98209 | 2415 ft | 13 kts | 182° |
| 2026-05-06 16:55 | 31.72714 | 35.98223 | 2417 ft | 9 kts | 170° |
| 2026-05-06 16:56 | 31.72658 | 35.98234 | 2417 ft | 7 kts | 170° |
| 2026-05-06 16:56 | 31.72622 | 35.98240 | 2417 ft | 2 kts | 169° |
| 2026-05-06 16:56 | 31.72613 | 35.98243 | 2418 ft | 4 kts | 165° |
| 2026-05-06 16:56 | 31.72604 | 35.98404 | 2418 ft | 33 kts | 80° |
| 2026-05-06 16:57 | 31.72628 | 35.98569 | 2418 ft | 18 kts | 82° |
| 2026-05-06 16:57 | 31.72647 | 35.98702 | 2418 ft | 13 kts | 80° |
| 2026-05-06 16:57 | 31.72660 | 35.98792 | 2418 ft | 10 kts | 79° |
| 2026-05-06 16:57 | 31.72660 | 35.98870 | 2418 ft | 9 kts | 107° |
| 2026-05-06 16:58 | 31.72619 | 35.98910 | 2418 ft | 7 kts | 166° |
| 2026-05-06 16:58 | 31.72572 | 35.98919 | 2418 ft | 6 kts | 165° |
| 2026-05-06 16:58 | 31.72536 | 35.98912 | 2418 ft | 5 kts | 208° |
| 2026-05-06 16:58 | 31.72495 | 35.98858 | 2418 ft | 11 kts | 194° |
| 2026-05-06 16:59 | 31.72453 | 35.98866 | 2418 ft | 0 kts | 169° |
| 2026-05-06 16:59 | 31.72449 | 35.98866 | 2418 ft | 2 kts | 169° |
| 2026-05-06 16:59 | 31.72449 | 35.98867 | 2418 ft | 0 kts | 169° |